sensor_id;sensor_type;location;lat;lon;timestamp;temperature;humidity
8563;DHT22;16392;52.508;13.468;2022-12-29T00:01:29;8.80;99.90
8563;DHT22;16392;52.508;13.468;2022-12-29T00:03:56;8.70;99.90
8563;DHT22;16392;52.508;13.468;2022-12-29T00:06:23;8.70;99.90
8563;DHT22;16392;52.508;13.468;2022-12-29T00:08:51;8.70;99.90
8563;DHT22;16392;52.508;13.468;2022-12-29T00:11:20;8.70;99.90
8563;DHT22;16392;52.508;13.468;2022-12-29T00:13:47;8.70;99.90
8563;DHT22;16392;52.508;13.468;2022-12-29T00:16:33;8.80;99.90
8563;DHT22;16392;52.508;13.468;2022-12-29T00:19:00;8.90;99.90
8563;DHT22;16392;52.508;13.468;2022-12-29T00:21:29;8.80;99.90
8563;DHT22;16392;52.508;13.468;2022-12-29T00:24:16;8.80;99.90
8563;DHT22;16392;52.508;13.468;2022-12-29T00:27:12;8.90;99.90
8563;DHT22;16392;52.508;13.468;2022-12-29T00:29:57;8.90;99.90
8563;DHT22;16392;52.508;13.468;2022-12-29T00:32:42;9.00;99.90
8563;DHT22;16392;52.508;13.468;2022-12-29T00:35:28;9.00;99.90
8563;DHT22;16392;52.508;13.468;2022-12-29T00:37:58;9.00;99.90
8563;DHT22;16392;52.508;13.468;2022-12-29T00:40:44;9.00;99.90
8563;DHT22;16392;52.508;13.468;2022-12-29T00:43:28;9.00;99.90
8563;DHT22;16392;52.508;13.468;2022-12-29T00:46:12;9.00;99.90
8563;DHT22;16392;52.508;13.468;2022-12-29T00:48:39;9.00;99.90
8563;DHT22;16392;52.508;13.468;2022-12-29T00:51:23;9.10;99.90
8563;DHT22;16392;52.508;13.468;2022-12-29T00:53:50;9.10;99.90
8563;DHT22;16392;52.508;13.468;2022-12-29T00:56:18;9.10;99.90
8563;DHT22;16392;52.508;13.468;2022-12-29T00:58:44;9.10;99.90
8563;DHT22;16392;52.508;13.468;2022-12-29T01:01:11;9.00;99.90
8563;DHT22;16392;52.508;13.468;2022-12-29T01:03:38;9.00;99.90
8563;DHT22;16392;52.508;13.468;2022-12-29T01:06:06;9.00;99.90
8563;DHT22;16392;52.508;13.468;2022-12-29T01:08:33;9.00;99.90
8563;DHT22;16392;52.508;13.468;2022-12-29T01:11:01;8.90;99.90
8563;DHT22;16392;52.508;13.468;2022-12-29T01:13:28;8.90;99.90
8563;DHT22;16392;52.508;13.468;2022-12-29T01:15:56;9.00;99.90
8563;DHT22;16392;52.508;13.468;2022-12-29T01:18:23;9.00;99.90
8563;DHT22;16392;52.508;13.468;2022-12-29T01:20:50;8.90;99.90
8563;DHT22;16392;52.508;13.468;2022-12-29T01:23:17;8.90;99.90
8563;DHT22;16392;52.508;13.468;2022-12-29T01:25:43;8.90;99.90
8563;DHT22;16392;52.508;13.468;2022-12-29T01:28:10;9.00;99.90
8563;DHT22;16392;52.508;13.468;2022-12-29T01:30:38;9.00;99.90
8563;DHT22;16392;52.508;13.468;2022-12-29T01:33:05;9.00;99.90
8563;DHT22;16392;52.508;13.468;2022-12-29T01:35:32;9.00;99.90
8563;DHT22;16392;52.508;13.468;2022-12-29T01:37:58;9.00;99.90
8563;DHT22;16392;52.508;13.468;2022-12-29T01:40:25;9.00;99.90
8563;DHT22;16392;52.508;13.468;2022-12-29T01:42:52;9.10;99.90
8563;DHT22;16392;52.508;13.468;2022-12-29T01:45:18;9.00;99.90
8563;DHT22;16392;52.508;13.468;2022-12-29T01:47:50;9.00;99.90
8563;DHT22;16392;52.508;13.468;2022-12-29T01:50:20;9.00;99.90
8563;DHT22;16392;52.508;13.468;2022-12-29T01:52:54;9.00;99.90
8563;DHT22;16392;52.508;13.468;2022-12-29T01:55:23;8.90;99.90
8563;DHT22;16392;52.508;13.468;2022-12-29T01:57:51;8.90;99.90
8563;DHT22;16392;52.508;13.468;2022-12-29T02:00:19;8.90;99.90
8563;DHT22;16392;52.508;13.468;2022-12-29T02:02:51;8.80;99.90
8563;DHT22;16392;52.508;13.468;2022-12-29T02:05:23;8.80;99.90
8563;DHT22;16392;52.508;13.468;2022-12-29T02:07:51;8.70;99.90
8563;DHT22;16392;52.508;13.468;2022-12-29T02:10:21;8.70;99.90
8563;DHT22;16392;52.508;13.468;2022-12-29T02:12:48;8.70;99.90
8563;DHT22;16392;52.508;13.468;2022-12-29T02:15:15;8.70;99.90
8563;DHT22;16392;52.508;13.468;2022-12-29T02:17:55;8.70;99.90
8563;DHT22;16392;52.508;13.468;2022-12-29T02:20:47;8.70;99.90
8563;DHT22;16392;52.508;13.468;2022-12-29T02:23:30;8.70;99.90
8563;DHT22;16392;52.508;13.468;2022-12-29T02:26:28;8.70;99.90
8563;DHT22;16392;52.508;13.468;2022-12-29T02:29:26;8.80;99.90
8563;DHT22;16392;52.508;13.468;2022-12-29T02:31:59;8.80;99.90
8563;DHT22;16392;52.508;13.468;2022-12-29T02:34:34;8.80;99.90
8563;DHT22;16392;52.508;13.468;2022-12-29T02:37:10;8.80;99.90
8563;DHT22;16392;52.508;13.468;2022-12-29T02:39:46;8.90;99.90
8563;DHT22;16392;52.508;13.468;2022-12-29T02:42:23;9.00;99.90
8563;DHT22;16392;52.508;13.468;2022-12-29T02:44:54;9.00;99.90
8563;DHT22;16392;52.508;13.468;2022-12-29T02:47:29;9.00;99.90
8563;DHT22;16392;52.508;13.468;2022-12-29T02:50:03;9.10;99.90
8563;DHT22;16392;52.508;13.468;2022-12-29T02:52:36;9.10;99.90
8563;DHT22;16392;52.508;13.468;2022-12-29T02:55:05;9.20;99.90
8563;DHT22;16392;52.508;13.468;2022-12-29T02:57:34;9.20;99.90
8563;DHT22;16392;52.508;13.468;2022-12-29T03:00:03;9.20;99.90
8563;DHT22;16392;52.508;13.468;2022-12-29T03:05:57;9.20;99.90
8563;DHT22;16392;52.508;13.468;2022-12-29T03:08:31;9.30;99.90
8563;DHT22;16392;52.508;13.468;2022-12-29T03:11:02;9.30;99.90
8563;DHT22;16392;52.508;13.468;2022-12-29T03:13:35;9.40;99.90
8563;DHT22;16392;52.508;13.468;2022-12-29T03:16:24;9.40;99.90
8563;DHT22;16392;52.508;13.468;2022-12-29T03:19:00;9.50;99.90
8563;DHT22;16392;52.508;13.468;2022-12-29T03:21:33;9.60;99.90
8563;DHT22;16392;52.508;13.468;2022-12-29T03:24:22;9.60;99.90
8563;DHT22;16392;52.508;13.468;2022-12-29T03:26:53;9.70;99.90
8563;DHT22;16392;52.508;13.468;2022-12-29T03:29:20;9.70;99.90
8563;DHT22;16392;52.508;13.468;2022-12-29T03:31:48;9.70;99.90
8563;DHT22;16392;52.508;13.468;2022-12-29T03:34:18;9.80;99.90
8563;DHT22;16392;52.508;13.468;2022-12-29T03:36:50;9.80;99.90
8563;DHT22;16392;52.508;13.468;2022-12-29T03:39:21;9.80;99.90
8563;DHT22;16392;52.508;13.468;2022-12-29T03:41:51;9.80;99.90
8563;DHT22;16392;52.508;13.468;2022-12-29T03:44:19;9.80;99.90
8563;DHT22;16392;52.508;13.468;2022-12-29T03:46:46;9.80;99.90
8563;DHT22;16392;52.508;13.468;2022-12-29T03:49:12;9.80;99.90
8563;DHT22;16392;52.508;13.468;2022-12-29T03:51:41;9.80;99.90
8563;DHT22;16392;52.508;13.468;2022-12-29T03:54:08;9.90;99.90
8563;DHT22;16392;52.508;13.468;2022-12-29T03:56:35;9.90;99.90
8563;DHT22;16392;52.508;13.468;2022-12-29T03:59:02;9.90;99.90
8563;DHT22;16392;52.508;13.468;2022-12-29T04:01:29;9.90;99.90
8563;DHT22;16392;52.508;13.468;2022-12-29T04:03:57;9.90;99.90
8563;DHT22;16392;52.508;13.468;2022-12-29T04:06:24;9.90;99.90
8563;DHT22;16392;52.508;13.468;2022-12-29T04:08:52;9.90;99.90
8563;DHT22;16392;52.508;13.468;2022-12-29T04:11:20;9.90;99.90
8563;DHT22;16392;52.508;13.468;2022-12-29T04:13:46;10.00;99.90
8563;DHT22;16392;52.508;13.468;2022-12-29T04:16:13;10.00;99.90
8563;DHT22;16392;52.508;13.468;2022-12-29T04:18:39;10.00;99.90
8563;DHT22;16392;52.508;13.468;2022-12-29T04:21:06;10.00;99.90
8563;DHT22;16392;52.508;13.468;2022-12-29T04:23:34;10.00;99.90
8563;DHT22;16392;52.508;13.468;2022-12-29T04:26:04;10.00;99.90
8563;DHT22;16392;52.508;13.468;2022-12-29T04:28:31;10.00;99.90
8563;DHT22;16392;52.508;13.468;2022-12-29T04:30:58;10.00;99.90
8563;DHT22;16392;52.508;13.468;2022-12-29T04:33:25;10.00;99.90
8563;DHT22;16392;52.508;13.468;2022-12-29T04:35:52;10.00;99.90
8563;DHT22;16392;52.508;13.468;2022-12-29T04:38:20;10.10;99.90
8563;DHT22;16392;52.508;13.468;2022-12-29T04:40:47;10.10;99.90
8563;DHT22;16392;52.508;13.468;2022-12-29T04:43:16;10.10;99.90
8563;DHT22;16392;52.508;13.468;2022-12-29T04:45:44;10.10;99.90
8563;DHT22;16392;52.508;13.468;2022-12-29T04:48:12;10.10;99.90
8563;DHT22;16392;52.508;13.468;2022-12-29T04:50:39;10.10;99.90
8563;DHT22;16392;52.508;13.468;2022-12-29T04:53:05;10.10;99.90
8563;DHT22;16392;52.508;13.468;2022-12-29T04:55:32;10.10;99.90
8563;DHT22;16392;52.508;13.468;2022-12-29T04:57:59;10.10;99.90
8563;DHT22;16392;52.508;13.468;2022-12-29T05:00:27;10.10;99.90
8563;DHT22;16392;52.508;13.468;2022-12-29T05:02:54;10.10;99.90
8563;DHT22;16392;52.508;13.468;2022-12-29T05:05:20;10.20;99.90
8563;DHT22;16392;52.508;13.468;2022-12-29T05:07:47;10.20;99.90
8563;DHT22;16392;52.508;13.468;2022-12-29T05:10:14;10.20;99.90
8563;DHT22;16392;52.508;13.468;2022-12-29T05:12:40;10.20;99.90
8563;DHT22;16392;52.508;13.468;2022-12-29T05:15:09;10.20;99.90
8563;DHT22;16392;52.508;13.468;2022-12-29T05:17:38;10.30;99.90
8563;DHT22;16392;52.508;13.468;2022-12-29T05:20:06;10.30;99.90
8563;DHT22;16392;52.508;13.468;2022-12-29T05:22:32;10.40;99.90
8563;DHT22;16392;52.508;13.468;2022-12-29T05:25:00;10.40;99.90
8563;DHT22;16392;52.508;13.468;2022-12-29T05:27:26;10.40;99.90
8563;DHT22;16392;52.508;13.468;2022-12-29T05:29:53;10.40;99.90
8563;DHT22;16392;52.508;13.468;2022-12-29T05:32:20;10.40;99.90
8563;DHT22;16392;52.508;13.468;2022-12-29T05:34:48;10.50;99.90
8563;DHT22;16392;52.508;13.468;2022-12-29T05:37:15;10.50;99.90
8563;DHT22;16392;52.508;13.468;2022-12-29T05:39:41;10.50;99.90
8563;DHT22;16392;52.508;13.468;2022-12-29T05:42:08;10.50;99.90
8563;DHT22;16392;52.508;13.468;2022-12-29T05:44:34;10.50;99.90
8563;DHT22;16392;52.508;13.468;2022-12-29T05:47:01;10.60;99.90
8563;DHT22;16392;52.508;13.468;2022-12-29T05:49:28;10.60;99.90
8563;DHT22;16392;52.508;13.468;2022-12-29T05:51:56;10.70;99.90
8563;DHT22;16392;52.508;13.468;2022-12-29T05:54:22;10.70;99.90
8563;DHT22;16392;52.508;13.468;2022-12-29T05:56:49;10.70;99.90
8563;DHT22;16392;52.508;13.468;2022-12-29T05:59:15;10.60;99.90
8563;DHT22;16392;52.508;13.468;2022-12-29T06:01:42;10.70;99.90
8563;DHT22;16392;52.508;13.468;2022-12-29T06:04:08;10.80;99.90
8563;DHT22;16392;52.508;13.468;2022-12-29T06:06:35;10.80;99.90
8563;DHT22;16392;52.508;13.468;2022-12-29T06:09:03;10.80;99.90
8563;DHT22;16392;52.508;13.468;2022-12-29T06:11:29;10.90;99.90
8563;DHT22;16392;52.508;13.468;2022-12-29T06:13:56;10.80;99.90
8563;DHT22;16392;52.508;13.468;2022-12-29T06:16:23;10.90;99.90
8563;DHT22;16392;52.508;13.468;2022-12-29T06:18:49;11.00;99.90
8563;DHT22;16392;52.508;13.468;2022-12-29T06:21:16;11.00;99.90
8563;DHT22;16392;52.508;13.468;2022-12-29T06:23:42;11.00;99.90
8563;DHT22;16392;52.508;13.468;2022-12-29T06:26:10;11.00;99.90
8563;DHT22;16392;52.508;13.468;2022-12-29T06:28:37;11.00;99.90
8563;DHT22;16392;52.508;13.468;2022-12-29T06:31:03;11.00;99.90
8563;DHT22;16392;52.508;13.468;2022-12-29T06:33:30;11.00;99.90
8563;DHT22;16392;52.508;13.468;2022-12-29T06:35:57;11.00;99.90
8563;DHT22;16392;52.508;13.468;2022-12-29T06:38:24;11.00;99.90
8563;DHT22;16392;52.508;13.468;2022-12-29T06:40:50;11.00;99.90
8563;DHT22;16392;52.508;13.468;2022-12-29T06:43:19;11.00;99.90
8563;DHT22;16392;52.508;13.468;2022-12-29T06:45:45;11.00;99.90
8563;DHT22;16392;52.508;13.468;2022-12-29T06:48:12;11.00;99.90
8563;DHT22;16392;52.508;13.468;2022-12-29T06:50:39;11.00;99.90
8563;DHT22;16392;52.508;13.468;2022-12-29T06:53:05;11.00;99.90
8563;DHT22;16392;52.508;13.468;2022-12-29T06:55:32;11.10;99.90
8563;DHT22;16392;52.508;13.468;2022-12-29T06:57:59;11.00;99.90
8563;DHT22;16392;52.508;13.468;2022-12-29T07:00:28;11.00;99.90
8563;DHT22;16392;52.508;13.468;2022-12-29T07:02:55;11.00;99.90
8563;DHT22;16392;52.508;13.468;2022-12-29T07:05:21;10.90;99.90
8563;DHT22;16392;52.508;13.468;2022-12-29T07:07:48;11.00;99.90
8563;DHT22;16392;52.508;13.468;2022-12-29T07:10:15;11.00;99.90
8563;DHT22;16392;52.508;13.468;2022-12-29T07:12:41;10.90;99.90
8563;DHT22;16392;52.508;13.468;2022-12-29T07:15:09;11.00;99.90
8563;DHT22;16392;52.508;13.468;2022-12-29T07:17:37;11.00;99.90
8563;DHT22;16392;52.508;13.468;2022-12-29T07:20:05;11.00;99.90
8563;DHT22;16392;52.508;13.468;2022-12-29T07:22:31;11.00;99.90
8563;DHT22;16392;52.508;13.468;2022-12-29T07:24:58;11.00;99.90
8563;DHT22;16392;52.508;13.468;2022-12-29T07:27:25;11.00;99.90
8563;DHT22;16392;52.508;13.468;2022-12-29T07:29:51;11.00;99.90
8563;DHT22;16392;52.508;13.468;2022-12-29T07:32:18;11.10;99.90
8563;DHT22;16392;52.508;13.468;2022-12-29T07:34:46;11.10;99.90
8563;DHT22;16392;52.508;13.468;2022-12-29T07:37:14;11.10;99.90
8563;DHT22;16392;52.508;13.468;2022-12-29T07:39:40;11.10;99.90
8563;DHT22;16392;52.508;13.468;2022-12-29T07:42:07;11.20;99.90
8563;DHT22;16392;52.508;13.468;2022-12-29T07:44:33;11.10;99.90
8563;DHT22;16392;52.508;13.468;2022-12-29T07:47:02;11.10;99.90
8563;DHT22;16392;52.508;13.468;2022-12-29T07:49:28;11.20;99.90
8563;DHT22;16392;52.508;13.468;2022-12-29T07:51:56;11.20;99.90
8563;DHT22;16392;52.508;13.468;2022-12-29T07:54:23;11.30;99.90
8563;DHT22;16392;52.508;13.468;2022-12-29T07:56:50;11.30;99.90
8563;DHT22;16392;52.508;13.468;2022-12-29T07:59:17;11.30;99.90
8563;DHT22;16392;52.508;13.468;2022-12-29T08:01:44;11.40;99.90
8563;DHT22;16392;52.508;13.468;2022-12-29T08:04:10;11.40;99.90
8563;DHT22;16392;52.508;13.468;2022-12-29T08:06:37;11.40;99.90
8563;DHT22;16392;52.508;13.468;2022-12-29T08:09:05;11.40;99.90
8563;DHT22;16392;52.508;13.468;2022-12-29T08:11:31;11.40;99.90
8563;DHT22;16392;52.508;13.468;2022-12-29T08:13:58;11.40;99.90
8563;DHT22;16392;52.508;13.468;2022-12-29T08:16:24;11.40;99.90
8563;DHT22;16392;52.508;13.468;2022-12-29T08:18:51;11.40;99.90
8563;DHT22;16392;52.508;13.468;2022-12-29T08:21:18;11.30;99.90
8563;DHT22;16392;52.508;13.468;2022-12-29T08:23:44;11.40;99.90
8563;DHT22;16392;52.508;13.468;2022-12-29T08:26:12;11.40;99.90
8563;DHT22;16392;52.508;13.468;2022-12-29T08:28:39;11.40;99.90
8563;DHT22;16392;52.508;13.468;2022-12-29T08:31:05;11.40;99.90
8563;DHT22;16392;52.508;13.468;2022-12-29T08:33:32;11.40;99.90
8563;DHT22;16392;52.508;13.468;2022-12-29T08:35:59;11.40;99.90
8563;DHT22;16392;52.508;13.468;2022-12-29T08:38:28;11.40;99.90
8563;DHT22;16392;52.508;13.468;2022-12-29T08:40:55;11.40;99.90
8563;DHT22;16392;52.508;13.468;2022-12-29T08:43:24;11.40;99.90
8563;DHT22;16392;52.508;13.468;2022-12-29T08:45:51;11.40;99.90
8563;DHT22;16392;52.508;13.468;2022-12-29T08:48:18;11.40;99.90
8563;DHT22;16392;52.508;13.468;2022-12-29T08:50:48;11.40;99.90
8563;DHT22;16392;52.508;13.468;2022-12-29T08:53:15;11.40;99.90
8563;DHT22;16392;52.508;13.468;2022-12-29T08:55:41;11.40;99.90
8563;DHT22;16392;52.508;13.468;2022-12-29T08:58:08;11.50;99.90
8563;DHT22;16392;52.508;13.468;2022-12-29T09:00:41;11.90;99.90
8563;DHT22;16392;52.508;13.468;2022-12-29T09:03:07;12.20;99.90
8563;DHT22;16392;52.508;13.468;2022-12-29T09:05:34;12.30;99.90
8563;DHT22;16392;52.508;13.468;2022-12-29T09:08:00;12.30;99.90
8563;DHT22;16392;52.508;13.468;2022-12-29T09:10:27;12.30;99.90
8563;DHT22;16392;52.508;13.468;2022-12-29T09:12:54;12.20;99.90
8563;DHT22;16392;52.508;13.468;2022-12-29T09:15:20;12.20;99.90
8563;DHT22;16392;52.508;13.468;2022-12-29T09:17:48;12.20;99.90
8563;DHT22;16392;52.508;13.468;2022-12-29T09:20:17;12.10;99.90
8563;DHT22;16392;52.508;13.468;2022-12-29T09:22:45;12.30;99.90
8563;DHT22;16392;52.508;13.468;2022-12-29T09:25:14;12.60;99.90
8563;DHT22;16392;52.508;13.468;2022-12-29T09:27:41;13.00;17.30
8563;DHT22;16392;52.508;13.468;2022-12-29T09:30:12;13.00;1.00
8563;DHT22;16392;52.508;13.468;2022-12-29T09:32:40;13.10;1.00
8563;DHT22;16392;52.508;13.468;2022-12-29T09:35:08;13.10;1.00
8563;DHT22;16392;52.508;13.468;2022-12-29T09:37:34;13.10;1.00
8563;DHT22;16392;52.508;13.468;2022-12-29T09:40:01;12.80;1.00
8563;DHT22;16392;52.508;13.468;2022-12-29T09:42:32;12.60;99.90
8563;DHT22;16392;52.508;13.468;2022-12-29T09:45:10;12.40;99.90
8563;DHT22;16392;52.508;13.468;2022-12-29T09:47:38;12.40;99.90
8563;DHT22;16392;52.508;13.468;2022-12-29T09:50:20;12.30;99.90
8563;DHT22;16392;52.508;13.468;2022-12-29T09:52:52;12.40;99.90
8563;DHT22;16392;52.508;13.468;2022-12-29T09:55:23;12.70;99.90
8563;DHT22;16392;52.508;13.468;2022-12-29T09:57:55;13.00;70.60
8563;DHT22;16392;52.508;13.468;2022-12-29T10:00:36;13.20;1.00
8563;DHT22;16392;52.508;13.468;2022-12-29T10:03:09;13.10;1.00
8563;DHT22;16392;52.508;13.468;2022-12-29T10:05:47;13.00;32.40
8563;DHT22;16392;52.508;13.468;2022-12-29T10:08:25;12.90;93.10
8563;DHT22;16392;52.508;13.468;2022-12-29T10:10:57;12.90;99.90
8563;DHT22;16392;52.508;13.468;2022-12-29T10:13:37;12.80;99.90
8563;DHT22;16392;52.508;13.468;2022-12-29T10:16:09;12.80;99.90
8563;DHT22;16392;52.508;13.468;2022-12-29T10:18:53;12.80;99.90
8563;DHT22;16392;52.508;13.468;2022-12-29T10:21:33;12.80;99.90
8563;DHT22;16392;52.508;13.468;2022-12-29T10:24:03;12.80;99.90
8563;DHT22;16392;52.508;13.468;2022-12-29T10:26:33;12.80;99.90
8563;DHT22;16392;52.508;13.468;2022-12-29T10:29:04;13.10;93.90
8563;DHT22;16392;52.508;13.468;2022-12-29T10:31:35;13.50;1.00
8563;DHT22;16392;52.508;13.468;2022-12-29T10:34:10;13.90;1.00
8563;DHT22;16392;52.508;13.468;2022-12-29T10:36:44;14.10;1.00
8563;DHT22;16392;52.508;13.468;2022-12-29T10:39:18;14.20;1.00
8563;DHT22;16392;52.508;13.468;2022-12-29T10:41:49;14.30;1.00
8563;DHT22;16392;52.508;13.468;2022-12-29T10:44:18;14.40;99.90
8563;DHT22;16392;52.508;13.468;2022-12-29T10:46:54;14.70;99.90
8563;DHT22;16392;52.508;13.468;2022-12-29T10:49:21;15.10;1.00
8563;DHT22;16392;52.508;13.468;2022-12-29T10:51:55;15.30;99.90
8563;DHT22;16392;52.508;13.468;2022-12-29T10:54:26;15.30;1.00
8563;DHT22;16392;52.508;13.468;2022-12-29T10:56:57;14.60;1.00
8563;DHT22;16392;52.508;13.468;2022-12-29T10:59:29;14.40;99.90
8563;DHT22;16392;52.508;13.468;2022-12-29T11:02:01;14.10;1.00
8563;DHT22;16392;52.508;13.468;2022-12-29T11:04:39;13.90;1.00
8563;DHT22;16392;52.508;13.468;2022-12-29T11:07:11;13.80;1.00
8563;DHT22;16392;52.508;13.468;2022-12-29T11:09:40;13.70;1.00
8563;DHT22;16392;52.508;13.468;2022-12-29T11:12:22;13.70;1.00
8563;DHT22;16392;52.508;13.468;2022-12-29T11:15:05;13.70;1.00
8563;DHT22;16392;52.508;13.468;2022-12-29T11:17:43;13.70;1.00
8563;DHT22;16392;52.508;13.468;2022-12-29T11:20:27;13.60;1.00
8563;DHT22;16392;52.508;13.468;2022-12-29T11:22:55;13.50;1.00
8563;DHT22;16392;52.508;13.468;2022-12-29T11:25:22;13.40;1.00
8563;DHT22;16392;52.508;13.468;2022-12-29T11:27:55;13.30;1.40
8563;DHT22;16392;52.508;13.468;2022-12-29T11:30:23;13.30;28.70
8563;DHT22;16392;52.508;13.468;2022-12-29T11:32:51;13.20;80.90
8563;DHT22;16392;52.508;13.468;2022-12-29T11:35:29;13.20;99.90
8563;DHT22;16392;52.508;13.468;2022-12-29T11:37:58;13.20;99.90
8563;DHT22;16392;52.508;13.468;2022-12-29T11:40:26;13.10;99.90
8563;DHT22;16392;52.508;13.468;2022-12-29T11:42:55;13.10;99.90
8563;DHT22;16392;52.508;13.468;2022-12-29T11:45:25;12.90;99.90
8563;DHT22;16392;52.508;13.468;2022-12-29T11:47:53;12.80;99.90
8563;DHT22;16392;52.508;13.468;2022-12-29T11:50:22;12.70;99.90
8563;DHT22;16392;52.508;13.468;2022-12-29T11:52:59;12.60;99.90
8563;DHT22;16392;52.508;13.468;2022-12-29T11:55:28;12.60;99.90
8563;DHT22;16392;52.508;13.468;2022-12-29T11:57:58;12.60;99.90
8563;DHT22;16392;52.508;13.468;2022-12-29T12:00:27;12.60;99.90
8563;DHT22;16392;52.508;13.468;2022-12-29T12:02:58;12.60;99.90
8563;DHT22;16392;52.508;13.468;2022-12-29T12:05:35;12.50;99.90
8563;DHT22;16392;52.508;13.468;2022-12-29T12:08:10;12.40;99.90
8563;DHT22;16392;52.508;13.468;2022-12-29T12:10:43;12.30;99.90
8563;DHT22;16392;52.508;13.468;2022-12-29T12:13:18;12.10;99.90
8563;DHT22;16392;52.508;13.468;2022-12-29T12:15:50;11.90;99.90
8563;DHT22;16392;52.508;13.468;2022-12-29T12:18:24;11.70;99.90
8563;DHT22;16392;52.508;13.468;2022-12-29T12:20:56;11.50;99.90
8563;DHT22;16392;52.508;13.468;2022-12-29T12:23:35;11.30;99.90
8563;DHT22;16392;52.508;13.468;2022-12-29T12:26:10;11.20;99.90
8563;DHT22;16392;52.508;13.468;2022-12-29T12:28:44;11.10;99.90
8563;DHT22;16392;52.508;13.468;2022-12-29T12:31:18;11.00;99.90
8563;DHT22;16392;52.508;13.468;2022-12-29T12:33:50;11.00;99.90
8563;DHT22;16392;52.508;13.468;2022-12-29T12:36:39;11.00;99.90
8563;DHT22;16392;52.508;13.468;2022-12-29T12:39:11;11.00;99.90
8563;DHT22;16392;52.508;13.468;2022-12-29T12:41:48;11.00;99.90
8563;DHT22;16392;52.508;13.468;2022-12-29T12:44:22;11.00;99.90
8563;DHT22;16392;52.508;13.468;2022-12-29T12:47:15;10.90;99.90
8563;DHT22;16392;52.508;13.468;2022-12-29T12:50:07;11.00;99.90
8563;DHT22;16392;52.508;13.468;2022-12-29T12:52:47;11.00;99.90
8563;DHT22;16392;52.508;13.468;2022-12-29T12:55:36;10.90;99.90
8563;DHT22;16392;52.508;13.468;2022-12-29T12:58:11;10.90;99.90
8563;DHT22;16392;52.508;13.468;2022-12-29T13:00:50;10.90;99.90
8563;DHT22;16392;52.508;13.468;2022-12-29T13:03:26;10.80;99.90
8563;DHT22;16392;52.508;13.468;2022-12-29T13:06:07;10.80;99.90
8563;DHT22;16392;52.508;13.468;2022-12-29T13:08:55;10.80;99.90
8563;DHT22;16392;52.508;13.468;2022-12-29T13:11:28;10.80;99.90
8563;DHT22;16392;52.508;13.468;2022-12-29T13:14:19;10.80;99.90
8563;DHT22;16392;52.508;13.468;2022-12-29T13:16:53;10.70;99.90
8563;DHT22;16392;52.508;13.468;2022-12-29T13:19:28;10.70;99.90
8563;DHT22;16392;52.508;13.468;2022-12-29T13:22:04;10.70;99.90
8563;DHT22;16392;52.508;13.468;2022-12-29T13:24:43;10.80;99.90
8563;DHT22;16392;52.508;13.468;2022-12-29T13:27:17;10.90;99.90
8563;DHT22;16392;52.508;13.468;2022-12-29T13:29:54;10.80;99.90
8563;DHT22;16392;52.508;13.468;2022-12-29T13:32:43;10.80;99.90
8563;DHT22;16392;52.508;13.468;2022-12-29T13:35:28;10.70;99.90
8563;DHT22;16392;52.508;13.468;2022-12-29T13:38:03;10.70;99.90
8563;DHT22;16392;52.508;13.468;2022-12-29T13:40:36;10.70;99.90
8563;DHT22;16392;52.508;13.468;2022-12-29T13:43:05;10.70;99.90
8563;DHT22;16392;52.508;13.468;2022-12-29T13:45:34;10.70;99.90
8563;DHT22;16392;52.508;13.468;2022-12-29T13:48:06;10.60;99.90
8563;DHT22;16392;52.508;13.468;2022-12-29T13:50:38;10.70;99.90
8563;DHT22;16392;52.508;13.468;2022-12-29T13:53:11;10.70;99.90
8563;DHT22;16392;52.508;13.468;2022-12-29T13:55:48;10.70;99.90
8563;DHT22;16392;52.508;13.468;2022-12-29T13:58:20;10.70;99.90
8563;DHT22;16392;52.508;13.468;2022-12-29T14:00:56;10.70;99.90
8563;DHT22;16392;52.508;13.468;2022-12-29T14:03:42;10.80;99.90
8563;DHT22;16392;52.508;13.468;2022-12-29T14:06:15;10.80;99.90
8563;DHT22;16392;52.508;13.468;2022-12-29T14:08:43;10.80;99.90
8563;DHT22;16392;52.508;13.468;2022-12-29T14:11:11;10.80;99.90
8563;DHT22;16392;52.508;13.468;2022-12-29T14:13:40;10.80;99.90
8563;DHT22;16392;52.508;13.468;2022-12-29T14:16:21;10.70;99.90
8563;DHT22;16392;52.508;13.468;2022-12-29T14:18:51;10.70;99.90
8563;DHT22;16392;52.508;13.468;2022-12-29T14:21:21;10.60;99.90
8563;DHT22;16392;52.508;13.468;2022-12-29T14:23:53;10.60;99.90
8563;DHT22;16392;52.508;13.468;2022-12-29T14:26:34;10.60;99.90
8563;DHT22;16392;52.508;13.468;2022-12-29T14:29:16;10.60;99.90
8563;DHT22;16392;52.508;13.468;2022-12-29T14:32:01;10.50;99.90
8563;DHT22;16392;52.508;13.468;2022-12-29T14:34:30;10.50;99.90
8563;DHT22;16392;52.508;13.468;2022-12-29T14:37:03;10.50;99.90
8563;DHT22;16392;52.508;13.468;2022-12-29T14:39:37;10.50;99.90
8563;DHT22;16392;52.508;13.468;2022-12-29T14:42:06;10.50;99.90
8563;DHT22;16392;52.508;13.468;2022-12-29T14:44:33;10.40;99.90
8563;DHT22;16392;52.508;13.468;2022-12-29T14:47:05;10.50;99.90
8563;DHT22;16392;52.508;13.468;2022-12-29T14:49:40;10.40;99.90
8563;DHT22;16392;52.508;13.468;2022-12-29T14:52:15;10.40;99.90
8563;DHT22;16392;52.508;13.468;2022-12-29T14:54:46;10.40;99.90
8563;DHT22;16392;52.508;13.468;2022-12-29T14:57:26;10.40;99.90
8563;DHT22;16392;52.508;13.468;2022-12-29T14:59:58;10.50;99.90
8563;DHT22;16392;52.508;13.468;2022-12-29T15:02:34;10.50;99.90
8563;DHT22;16392;52.508;13.468;2022-12-29T15:05:04;10.50;99.90
8563;DHT22;16392;52.508;13.468;2022-12-29T15:07:32;10.50;99.90
8563;DHT22;16392;52.508;13.468;2022-12-29T15:10:05;10.50;99.90
8563;DHT22;16392;52.508;13.468;2022-12-29T15:12:37;10.40;99.90
8563;DHT22;16392;52.508;13.468;2022-12-29T15:15:18;10.40;99.90
8563;DHT22;16392;52.508;13.468;2022-12-29T15:17:46;10.40;99.90
8563;DHT22;16392;52.508;13.468;2022-12-29T15:20:25;10.40;99.90
8563;DHT22;16392;52.508;13.468;2022-12-29T15:22:55;10.40;99.90
8563;DHT22;16392;52.508;13.468;2022-12-29T15:25:23;10.40;99.90
8563;DHT22;16392;52.508;13.468;2022-12-29T15:27:51;10.40;99.90
8563;DHT22;16392;52.508;13.468;2022-12-29T15:30:19;10.50;99.90
8563;DHT22;16392;52.508;13.468;2022-12-29T15:32:50;10.40;99.90
8563;DHT22;16392;52.508;13.468;2022-12-29T15:35:30;10.30;99.90
8563;DHT22;16392;52.508;13.468;2022-12-29T15:37:58;10.20;99.90
8563;DHT22;16392;52.508;13.468;2022-12-29T15:40:27;10.00;99.90
8563;DHT22;16392;52.508;13.468;2022-12-29T15:43:14;10.00;99.90
8563;DHT22;16392;52.508;13.468;2022-12-29T15:45:43;9.90;99.90
8563;DHT22;16392;52.508;13.468;2022-12-29T15:48:16;9.90;99.90
8563;DHT22;16392;52.508;13.468;2022-12-29T15:50:44;9.90;99.90
8563;DHT22;16392;52.508;13.468;2022-12-29T15:53:16;9.90;99.90
8563;DHT22;16392;52.508;13.468;2022-12-29T15:55:44;9.80;99.90
8563;DHT22;16392;52.508;13.468;2022-12-29T15:58:19;9.80;99.90
8563;DHT22;16392;52.508;13.468;2022-12-29T16:00:47;9.80;99.90
8563;DHT22;16392;52.508;13.468;2022-12-29T16:03:16;9.70;99.90